Ithaca, NY

11:48 PM EDT on September 21, 2014 (GMT -0400)
Tompkins County | Change Station
CLOSE
Current Station
Airport
Location: Ithaca,
Elevation: 1099 ft
Nearby Weather Stations

Elev 1099 ft 42.49 °N, 76.46 °W | Updated 52 minutes ago

Scattered Clouds
Scattered Clouds
59 °F
Feels Like 59 °F
N
4
Wind Variable Wind from West

Today
High -- | Low -- °F
--% Chance of Precip.
Yesterday
High -- | Low -- °F
Precip. -- in
6:52 AM 7:04 PM
Waning Crescent, 4% visible
Pressure 29.70 in
Visibility 10.0 miles
Clouds Scattered Clouds 9000 ft
Dew Point 54 °F
Humidity 83%
Rainfall 0.53 in
Snow Depth Not available.
UV 0 out of 12
Pollen .50 out of 12
PM2.5 Good
Flu Activity Not available.
METAR KITH 220256Z AUTO 26003KT 10SM SCT090 15/12 A2971 RMK AO2 51012 60000 T01500122 RAE13 P0000 SLP056

More Conditions Fewer Conditions

Pressure 29.70 in
Visibility 10.0 miles
Clouds Scattered Clouds 9000 ft
Dew Point 54 °F
Humidity 83%
Rainfall 0.53 in
Snow Depth Not available.
UV 0 out of 12
Pollen .50 out of 12
PM2.5 Good
Flu Activity Not available.
METAR KITH 220256Z AUTO 26003KT 10SM SCT090 15/12 A2971 RMK AO2 51012 60000 T01500122 RAE13 P0000 SLP056

More Conditions Fewer Conditions

10-Day Weather Forecast

Almanac

Astronomy

Sep. 21, 2014 Rise Set
Actual Time 6:52 AM EDT 7:04 PM EDT
Civil Twilight 6:23 AM EDT 7:32 PM EDT
Nautical Twilight 5:50 AM EDT 8:05 PM EDT
Astronomical Twilight 5:17 AM EDT 8:39 PM EDT
Moon 4:21 AM EDT (9/21) 5:41 PM EDT (9/21)
Length of Visible Light 13h 09m
Length of Day
12h 12m
Tomorrow will be 2m 52s shorter.
Waning Crescent, 4% of the Moon is Illuminated
Today
Waning Crescent
Sep 24
New
Oct 1
First Quarter
Oct 8
Full
Oct 15
Last Quarter

Today's Extremes

State Highs State Lows

Community

WunderPhotos

Upload Photos

1,755,382 photos uploaded!

Nearby

Air Quality

  Air Quality AQ Index Pollutant
Yesterday Good
PM2.5
Yesterday Good
OZONE
Current Good
PM2.5
Sunday Good
PM2.5
Sunday Good
OZONE
Monday Good
OZONE
Monday Good
PM2.5

Snow Depth

Station Depth Elevation
No new snow has been reported.

Earthquake Activity

City Distance Mag. Time & Date
No recent earthquake activity has been reported nearby.
Minimum magnitude displayed is 2.5.

Coastal Water Temperatures

Place Temperature
No Stations Reporting

Nearby Weather Stations